Coyote Springs, Nevada
Current Conditions -  °F | °C
As of 1:58 AM on Wednesday 26 Nov 2014 (Local Time) from KINS Reporting Station
Clear Clear  
Wind Chill: 34°   Ceiling: Unl
Heat Index: 38°   Visibility: 10mi
Dew Point:   Wind: 6mph
Humidity: 27%   Direction: 310°NW
Pressure: 30.4"   Gusts: NA
Location:  36.91°N, 114.95°W
Report Text: KINS 260958Z AUTO 31005KT 10SM CLR 04/M14 A3040 RMK AO2 SLP279 T00351139 $
Loading
Personal Weather Stations






























Interactive Weather Map New forecast layout! Learn more

10-Day Weather Forecast

Advertisements
Track Severe Weather on mobile